Terminal Aerodrome Forecast
Issued by NWS

Home | Current Version | Previous Version | Text Only | Print | Product List | Glossary On
Versions: 1 2 3 4 5 6 7 8 9 10 11 12 13 14 15
339
FTUS42 KMLB 090542
TAFLEE
TAF
KLEE 090542Z 0906/1006 28016G24KT P6SM BKN050 OVC080
     FM091700 27020G30KT P6SM BKN050
     FM100000 27014G20KT P6SM SCT050=

USA.gov is the U.S. government's official web portal to all federal, state and local government web resources and services.